Time;durP1;ratioP1;P1;durP2;ratioP2;P2;SDS_P1;SDS_P2;PMS_P1;PMS_P2;Temp;Humidity;BMP_temperature;BMP_pressure;BME280_temperature;BME280_humidity;BME280_pressure;Samples;Min_cycle;Max_cycle;Signal;HPM_P1;HPM_P2
2022/03/29 00:01:54;;;;;;;17.77;9.43;;;;;;;12.38;52.00;100416.00;4172699;28;20387;-58
2022/03/29 00:03:57;;;;;;;14.98;10.15;;;;;;;12.39;52.44;100420.34;4177970;28;20056;-58
2022/03/29 00:05:59;;;;;;;15.18;9.88;;;;;;;12.41;52.69;100422.97;4176562;28;20044;-58
2022/03/29 00:08:03;;;;;;;23.48;9.70;;;;;;;12.39;53.19;100416.88;4177687;28;20103;-58
2022/03/29 00:10:08;;;;;;;16.75;8.88;;;;;;;12.35;52.96;100412.50;4175539;28;20068;-58
2022/03/29 00:12:11;;;;;;;17.67;9.32;;;;;;;12.34;52.42;100413.38;4171424;28;20037;-58
2022/03/29 00:14:14;;;;;;;22.95;10.23;;;;;;;12.33;52.54;100412.50;4178761;28;20517;-60
2022/03/29 00:16:17;;;;;;;15.07;8.63;;;;;;;12.29;52.65;100407.25;4174214;28;20063;-58
2022/03/29 00:18:26;;;;;;;18.67;10.25;;;;;;;12.36;51.58;100401.22;4191360;28;20051;-58
2022/03/29 00:20:29;;;;;;;18.85;10.13;;;;;;;12.39;51.41;100394.28;4182110;28;20056;-58
2022/03/29 00:22:32;;;;;;;18.27;10.27;;;;;;;12.41;52.12;100399.50;4173188;28;20063;-58
2022/03/29 00:24:35;;;;;;;18.95;9.68;;;;;;;12.39;52.29;100396.03;4180559;28;20053;-58
2022/03/29 00:26:39;;;;;;;15.45;9.65;;;;;;;12.35;52.87;100394.25;4180663;28;20110;-58
2022/03/29 00:28:42;;;;;;;18.42;10.35;;;;;;;12.29;52.65;100391.63;4177715;28;20103;-59
2022/03/29 00:30:45;;;;;;;19.95;11.65;;;;;;;12.26;52.70;100394.22;4180514;28;20131;-58
2022/03/29 00:32:48;;;;;;;17.55;10.15;;;;;;;12.19;52.31;100394.19;4178883;28;20569;-58
2022/03/29 00:34:51;;;;;;;15.20;9.40;;;;;;;12.17;52.13;100388.06;4181582;28;20560;-58
2022/03/29 00:36:53;;;;;;;18.15;9.75;;;;;;;12.19;52.10;100383.75;4180299;28;20056;-58
2022/03/29 00:38:56;;;;;;;19.98;10.70;;;;;;;12.02;52.38;100385.38;4180958;28;20072;-58
2022/03/29 00:41:00;;;;;;;18.90;12.40;;;;;;;12.11;51.39;100376.75;4178538;28;20063;-58
2022/03/29 00:43:05;;;;;;;21.60;12.38;;;;;;;12.22;50.41;100368.13;4181038;28;20445;-59
2022/03/29 00:45:09;;;;;;;19.30;11.82;;;;;;;12.34;50.66;100371.69;4181624;28;20045;-58
2022/03/29 00:47:12;;;;;;;22.93;12.77;;;;;;;12.43;50.13;100379.53;4179755;28;20118;-58
2022/03/29 00:49:15;;;;;;;21.13;12.77;;;;;;;12.54;49.94;100369.16;4177948;28;20071;-58
2022/03/29 00:51:18;;;;;;;20.95;13.38;;;;;;;12.65;50.22;100371.81;4173070;28;20046;-58
2022/03/29 00:53:22;;;;;;;21.70;11.80;;;;;;;12.69;50.11;100366.63;4211766;28;20463;-58
2022/03/29 00:55:24;;;;;;;18.30;10.83;;;;;;;12.69;50.54;100364.00;4179124;28;20083;-58
2022/03/29 00:57:29;;;;;;;15.32;10.10;;;;;;;12.68;51.62;100366.63;4180232;28;20056;-58
2022/03/29 00:59:34;;;;;;;19.08;10.73;;;;;;;12.61;52.16;100370.06;4175720;28;20394;-58
2022/03/29 01:01:36;;;;;;;16.45;10.05;;;;;;;12.52;52.33;100363.94;4177381;28;20057;-58
2022/03/29 01:03:42;;;;;;;22.20;10.63;;;;;;;12.46;52.38;100363.91;4182280;28;20232;-58
2022/03/29 01:05:44;;;;;;;15.05;10.07;;;;;;;12.41;51.99;100365.59;4174849;28;20041;-58
2022/03/29 01:07:47;;;;;;;15.13;10.43;;;;;;;12.43;51.31;100366.50;4180114;28;20411;-58
2022/03/29 01:09:50;;;;;;;22.52;11.93;;;;;;;12.45;51.45;100359.53;4182253;28;20048;-58
2022/03/29 01:11:53;;;;;;;17.75;11.13;;;;;;;12.48;51.78;100356.94;4180896;28;20078;-59
2022/03/29 01:13:56;;;;;;;18.27;11.38;;;;;;;12.51;50.39;100354.38;4180379;28;20033;-59
2022/03/29 01:17:38;;;;;;;24.33;13.98;;;;;;;12.54;49.39;100357.00;4179513;28;20427;-59
2022/03/29 01:18:26;;;;;;;21.30;14.17;;;;;;;12.54;49.29;100343.97;4180345;28;20099;-59
2022/03/29 01:20:31;;;;;;;22.83;13.93;;;;;;;12.59;48.86;100349.19;4179822;28;20067;-59
2022/03/29 01:22:36;;;;;;;19.60;12.32;;;;;;;12.61;49.56;100351.81;4180524;28;20118;-59
2022/03/29 01:24:42;;;;;;;13.77;9.40;;;;;;;12.58;51.40;100344.84;4181480;28;20044;-59
2022/03/29 01:26:44;;;;;;;22.40;10.70;;;;;;;12.53;51.90;100349.19;4175175;28;20041;-59
2022/03/29 01:28:47;;;;;;;22.10;11.52;;;;;;;12.42;52.01;100343.03;4181738;28;20041;-59
2022/03/29 01:30:52;;;;;;;16.58;11.02;;;;;;;12.33;52.30;100344.72;4181106;28;20483;-59
2022/03/29 01:32:55;;;;;;;20.05;10.82;;;;;;;12.31;52.40;100340.34;4211714;28;20101;-59
2022/03/29 01:34:59;;;;;;;17.98;11.82;;;;;;;12.31;51.75;100338.63;4178641;28;20554;-59
2022/03/29 01:37:04;;;;;;;18.27;12.45;;;;;;;12.35;51.76;100336.91;4203342;28;20533;-59
2022/03/29 01:39:08;;;;;;;18.20;12.23;;;;;;;12.33;51.60;100328.22;4180530;28;20045;-59
2022/03/29 01:41:11;;;;;;;18.02;11.80;;;;;;;12.33;52.38;100331.69;4180507;28;20040;-59
2022/03/29 01:43:14;;;;;;;23.35;11.88;;;;;;;12.30;52.09;100326.47;4179432;28;20517;-59
2022/03/29 01:45:20;;;;;;;20.20;12.50;;;;;;;12.25;52.58;100322.06;4181468;28;20044;-59
2022/03/29 01:47:23;;;;;;;18.00;13.07;;;;;;;12.15;52.50;100316.84;4180675;28;20044;-59
2022/03/29 01:49:26;;;;;;;19.95;13.00;;;;;;;12.14;51.25;100328.09;4180718;28;20123;-60
2022/03/29 01:51:28;;;;;;;25.95;13.82;;;;;;;12.20;51.31;100327.28;4173871;28;20495;-59
2022/03/29 01:53:31;;;;;;;17.75;11.20;;;;;;;12.25;52.23;100332.50;4180373;28;20041;-59
2022/03/29 01:55:36;;;;;;;18.67;10.55;;;;;;;12.27;51.92;100323.84;4173199;28;20049;-59
2022/03/29 01:57:39;;;;;;;16.52;11.30;;;;;;;12.22;52.94;100317.72;4190722;28;20114;-59
2022/03/29 02:02:03;;;;;;;22.25;12.57;;;;;;;12.16;53.12;100315.09;4172925;28;20402;-59
2022/03/29 02:04:06;;;;;;;17.33;12.05;;;;;;;12.14;53.17;100319.44;4180155;28;20491;-59
2022/03/29 02:06:09;;;;;;;24.77;13.10;;;;;;;12.11;53.56;100315.06;4177620;28;20445;-59
2022/03/29 02:08:12;;;;;;;21.65;13.10;;;;;;;12.05;53.71;100313.28;4176849;28;20040;-59
2022/03/29 02:10:16;;;;;;;20.73;11.95;;;;;;;12.00;54.17;100314.13;4181303;28;20041;-59
2022/03/29 02:12:20;;;;;;;21.65;12.65;;;;;;;11.91;54.83;100314.03;4177864;28;20592;-59
2022/03/29 02:14:23;;;;;;;18.65;12.43;;;;;;;11.84;55.15;100307.91;4180424;28;20076;-59
2022/03/29 02:16:26;;;;;;;22.98;13.20;;;;;;;11.78;56.75;100307.88;4179937;28;20045;-59
2022/03/29 02:18:28;;;;;;;21.65;13.65;;;;;;;11.71;56.82;100301.78;4176254;28;20068;-59
2022/03/29 02:20:31;;;;;;;18.50;12.45;;;;;;;11.69;56.85;100300.88;4180019;28;20106;-58
2022/03/29 02:22:34;;;;;;;18.52;12.75;;;;;;;11.67;55.94;100300.88;4178477;28;20041;-59
2022/03/29 02:24:37;;;;;;;22.00;13.75;;;;;;;11.67;56.73;100295.66;4174213;28;20042;-58
2022/03/29 02:26:40;;;;;;;19.42;12.80;;;;;;;11.66;56.69;100298.25;4172410;28;20037;-58
2022/03/29 02:28:44;;;;;;;22.55;13.80;;;;;;;11.63;57.75;100298.22;4180019;28;20568;-59
2022/03/29 02:30:47;;;;;;;22.08;12.35;;;;;;;11.59;57.43;100299.06;4174976;28;20098;-58
2022/03/29 02:32:49;;;;;;;22.38;13.23;;;;;;;11.59;58.31;100292.13;4177381;28;20098;-59
2022/03/29 02:34:52;;;;;;;19.08;12.90;;;;;;;11.56;57.02;100292.09;4173597;28;20041;-59
2022/03/29 02:36:55;;;;;;;20.75;13.27;;;;;;;11.56;57.33;100288.63;4178653;28;20041;-59
2022/03/29 02:38:58;;;;;;;23.10;13.32;;;;;;;11.52;58.20;100285.13;4178858;28;20499;-59
2022/03/29 02:41:01;;;;;;;18.75;12.80;;;;;;;11.50;58.13;100286.84;4176952;28;20041;-59
2022/03/29 02:43:03;;;;;;;18.90;11.88;;;;;;;11.45;58.42;100284.22;4176057;28;20041;-59
2022/03/29 02:45:09;;;;;;;24.85;13.52;;;;;;;11.39;58.95;100286.78;4180784;28;20045;-59
2022/03/29 02:47:12;;;;;;;22.60;14.93;;;;;;;11.31;59.69;100286.69;4175642;28;20068;-59
2022/03/29 02:49:15;;;;;;;27.17;15.00;;;;;;;11.26;59.93;100282.34;4178567;28;20395;-59
2022/03/29 02:51:17;;;;;;;22.50;13.27;;;;;;;11.24;59.67;100273.63;4179145;28;20033;-59
2022/03/29 02:53:20;;;;;;;22.05;14.32;;;;;;;11.28;59.29;100272.78;4171977;28;20046;-59
2022/03/29 02:55:25;;;;;;;20.63;14.30;;;;;;;11.20;59.08;100264.94;4172404;28;20072;-58
2022/03/29 02:57:28;;;;;;;22.60;14.90;;;;;;;11.15;59.75;100261.41;4179198;28;20178;-58
2022/03/29 02:59:31;;;;;;;19.95;14.38;;;;;;;11.16;58.24;100270.97;4178084;28;20414;-59
2022/03/29 03:01:35;;;;;;;23.67;14.13;;;;;;;11.17;58.62;100265.78;4173276;28;20507;-59
2022/03/29 03:03:38;;;;;;;17.83;13.32;;;;;;;11.13;58.65;100266.59;4174898;28;20045;-59
2022/03/29 03:05:41;;;;;;;21.60;14.07;;;;;;;11.16;58.40;100269.22;4176886;28;20181;-58
2022/03/29 03:07:45;;;;;;;21.17;14.80;;;;;;;11.17;57.84;100265.78;4179503;28;20055;-59
2022/03/29 03:09:48;;;;;;;20.80;14.23;;;;;;;11.18;57.99;100261.44;4175148;28;20048;-59
2022/03/29 03:11:50;;;;;;;19.55;12.77;;;;;;;11.19;58.21;100268.38;4179286;28;20045;-59
2022/03/29 03:13:53;;;;;;;21.13;14.50;;;;;;;11.17;58.44;100262.31;4180131;28;20041;-59
2022/03/29 03:15:56;;;;;;;21.17;14.15;;;;;;;11.15;57.72;100257.06;4175166;28;20521;-59
2022/03/29 03:18:02;;;;;;;24.25;14.93;;;;;;;11.14;57.98;100257.94;4173261;28;20087;-59
2022/03/29 03:20:07;;;;;;;20.83;13.52;;;;;;;11.12;58.23;100250.97;4173912;28;20130;-64
2022/03/29 03:22:10;;;;;;;29.42;16.13;;;;;;;11.13;57.42;100253.59;4178388;28;20029;-59
2022/03/29 03:24:13;;;;;;;18.58;13.18;;;;;;;11.09;57.87;100253.56;4179122;28;20037;-58
2022/03/29 03:26:16;;;;;;;23.42;14.50;;;;;;;11.03;57.97;100248.31;4180106;28;20048;-58
2022/03/29 03:28:19;;;;;;;24.23;14.52;;;;;;;10.97;58.38;100251.72;4175632;28;20068;-59
2022/03/29 03:30:22;;;;;;;25.45;15.43;;;;;;;11.02;58.27;100256.97;4177900;28;20049;-59
2022/03/29 03:32:24;;;;;;;23.95;14.68;;;;;;;11.05;57.96;100249.19;4176300;28;20045;-59
2022/03/29 03:34:28;;;;;;;23.85;15.20;;;;;;;11.09;58.11;100248.34;4178802;28;20103;-59
2022/03/29 03:36:31;;;;;;;31.77;18.30;;;;;;;11.15;56.38;100244.06;4178968;28;20396;-59
2022/03/29 03:38:35;;;;;;;28.60;18.65;;;;;;;11.26;55.13;100241.56;4177337;28;20095;-59
2022/03/29 03:40:38;;;;;;;33.40;20.50;;;;;;;11.38;53.54;100243.38;4175180;28;20060;-59
2022/03/29 03:42:41;;;;;;;30.50;18.70;;;;;;;11.41;53.68;100235.59;4171336;28;20043;-58
2022/03/29 03:44:44;;;;;;;35.00;20.77;;;;;;;11.46;53.55;100233.00;4171394;28;20477;-59
2022/03/29 03:46:47;;;;;;;29.90;19.08;;;;;;;11.53;52.52;100224.38;4175234;28;20045;-59
2022/03/29 03:48:49;;;;;;;30.63;19.20;;;;;;;11.55;52.75;100224.41;4178834;28;20383;-59
2022/03/29 03:50:54;;;;;;;32.22;19.60;;;;;;;11.58;52.83;100214.00;4181587;28;20052;-59
2022/03/29 03:52:57;;;;;;;28.65;18.95;;;;;;;11.52;52.99;100220.94;4181858;28;20049;-59
2022/03/29 03:54:59;;;;;;;29.17;18.48;;;;;;;11.53;53.19;100224.38;4183181;28;20114;-59
2022/03/29 03:57:03;;;;;;;31.38;18.92;;;;;;;11.57;53.17;100223.56;4179824;28;20068;-59
2022/03/29 03:59:06;;;;;;;29.65;18.50;;;;;;;11.61;52.92;100220.13;4180626;28;20757;-59
2022/03/29 04:01:11;;;;;;;29.13;18.63;;;;;;;11.62;53.33;100223.56;4174687;28;20517;-59
2022/03/29 04:03:15;;;;;;;33.45;20.00;;;;;;;11.64;52.55;100211.47;4173376;28;20049;-58
2022/03/29 04:05:19;;;;;;;29.08;17.60;;;;;;;11.65;52.73;100213.19;4182703;28;20041;-59
2022/03/29 04:07:23;;;;;;;28.85;18.77;;;;;;;11.63;52.66;100210.56;4178137;28;20521;-58
2022/03/29 04:09:27;;;;;;;27.83;18.08;;;;;;;11.64;53.11;100211.47;4180118;28;20037;-59
2022/03/29 04:11:29;;;;;;;26.13;16.27;;;;;;;11.64;54.56;100201.03;4178959;28;20202;-59
2022/03/29 04:13:32;;;;;;;31.83;20.50;;;;;;;11.63;52.82;100207.97;4176872;28;20167;-59
2022/03/29 04:15:35;;;;;;;31.42;19.55;;;;;;;11.65;52.84;100211.47;4178575;28;20048;-58
2022/03/29 04:17:38;;;;;;;30.40;21.02;;;;;;;11.68;52.64;100211.47;4182626;28;20048;-59
2022/03/29 04:19:41;;;;;;;34.45;21.50;;;;;;;11.73;52.46;100214.09;4181063;28;20505;-59
2022/03/29 04:21:44;;;;;;;34.15;20.27;;;;;;;11.72;52.53;100209.75;4178117;28;20114;-58
2022/03/29 04:23:48;;;;;;;34.83;20.48;;;;;;;11.73;52.40;100206.28;4181765;28;20037;-59
2022/03/29 04:25:50;;;;;;;32.22;19.45;;;;;;;11.72;53.21;100209.75;4209707;28;20056;-59
2022/03/29 04:27:53;;;;;;;21.30;15.65;;;;;;;11.72;54.42;100212.34;4181790;28;20091;-59
2022/03/29 04:29:56;;;;;;;22.98;15.68;;;;;;;11.67;55.33;100207.13;4179292;28;20120;-59
2022/03/29 04:31:59;;;;;;;23.17;15.05;;;;;;;11.60;55.56;100213.16;4181157;28;20098;-59
2022/03/29 04:34:02;;;;;;;26.33;17.50;;;;;;;11.48;56.70;100213.09;4183018;28;20170;-59
2022/03/29 04:36:05;;;;;;;33.20;18.10;;;;;;;11.41;57.23;100208.69;4197322;28;20071;-59
2022/03/29 04:38:08;;;;;;;26.30;16.77;;;;;;;11.31;57.58;100207.75;4182781;28;20122;-59
2022/03/29 04:40:13;;;;;;;26.30;17.42;;;;;;;11.22;58.35;100203.34;4182503;28;20040;-59
2022/03/29 04:42:18;;;;;;;25.63;16.80;;;;;;;11.10;59.84;100206.75;4182631;28;20092;-59
2022/03/29 04:44:20;;;;;;;29.58;16.13;;;;;;;11.07;59.17;100198.91;4176489;28;20045;-59
2022/03/29 04:46:23;;;;;;;29.17;18.70;;;;;;;11.06;59.71;100207.56;4179915;28;20045;-59
2022/03/29 04:48:26;;;;;;;38.17;20.23;;;;;;;11.08;58.04;100200.66;4177895;28;20041;-59
2022/03/29 04:50:29;;;;;;;26.63;18.00;;;;;;;11.12;58.38;100196.34;4181226;28;20048;-59
2022/03/29 04:52:32;;;;;;;31.10;19.38;;;;;;;11.17;58.04;100199.88;4180942;28;20294;-59
2022/03/29 04:54:35;;;;;;;32.22;19.98;;;;;;;11.21;56.95;100198.16;4182463;28;20049;-59
2022/03/29 04:56:39;;;;;;;28.05;16.63;;;;;;;11.22;58.21;100200.75;4181225;28;20099;-59
2022/03/29 04:58:41;;;;;;;30.05;15.50;;;;;;;11.17;59.21;100192.06;4166074;28;20411;-59
2022/03/29 05:00:44;;;;;;;26.48;16.27;;;;;;;11.13;59.54;100191.16;4173878;28;20478;-59
2022/03/29 05:02:48;;;;;;;27.85;17.02;;;;;;;11.03;59.79;100191.09;4180747;28;20507;-59
2022/03/29 05:04:51;;;;;;;29.48;17.02;;;;;;;10.90;61.18;100190.09;4181169;28;20040;-59
2022/03/29 05:06:54;;;;;;;30.98;17.73;;;;;;;10.85;60.97;100186.56;4182298;28;20502;-59
2022/03/29 05:08:56;;;;;;;25.15;16.60;;;;;;;10.81;61.53;100189.16;4179842;28;20084;-59
2022/03/29 05:10:59;;;;;;;26.73;17.42;;;;;;;10.78;61.50;100189.13;4182748;28;20111;-59
2022/03/29 05:13:04;;;;;;;28.65;16.88;;;;;;;10.77;61.49;100182.19;4181926;28;20045;-58
2022/03/29 05:15:08;;;;;;;29.17;17.55;;;;;;;10.70;61.89;100182.97;4180140;28;20037;-59
2022/03/29 05:17:11;;;;;;;22.63;15.70;;;;;;;10.56;62.11;100185.47;4182049;28;20041;-59
2022/03/29 05:19:13;;;;;;;27.73;17.60;;;;;;;10.50;62.60;100189.72;4181316;28;20049;-59
2022/03/29 05:21:16;;;;;;;26.35;17.80;;;;;;;10.46;62.64;100192.28;4179745;28;20095;-59
2022/03/29 05:23:19;;;;;;;26.00;15.23;;;;;;;10.45;62.84;100180.16;4181851;28;20420;-58
2022/03/29 05:25:24;;;;;;;23.25;15.80;;;;;;;10.43;62.74;100184.47;4180132;28;20044;-59
2022/03/29 05:27:27;;;;;;;26.80;16.08;;;;;;;10.40;62.32;100191.38;4181899;28;20040;-59
2022/03/29 05:29:31;;;;;;;29.98;17.77;;;;;;;10.42;62.35;100185.31;4181192;28;20125;-59
2022/03/29 05:31:34;;;;;;;24.38;17.10;;;;;;;10.37;62.48;100181.81;4189006;28;20067;-59
2022/03/29 05:33:36;;;;;;;25.33;16.42;;;;;;;10.35;61.90;100191.28;4181691;28;20039;-58
2022/03/29 05:35:39;;;;;;;28.40;17.05;;;;;;;10.29;62.38;100181.72;4181269;28;20083;-59
2022/03/29 05:37:42;;;;;;;25.52;15.88;;;;;;;10.28;61.97;100185.16;4180707;28;20045;-59
2022/03/29 05:39:45;;;;;;;27.27;16.20;;;;;;;10.30;62.42;100187.75;4179772;28;20549;-59
2022/03/29 05:41:48;;;;;;;30.15;16.77;;;;;;;10.27;62.10;100187.72;4175141;28;20041;-59
2022/03/29 05:43:51;;;;;;;26.90;15.95;;;;;;;10.25;62.13;100202.41;4183591;28;20033;-59
2022/03/29 05:50:36;;;;;;;38.42;15.57;;;;;;;10.20;62.69;100188.50;4180312;28;20063;-58
2022/03/29 05:52:38;;;;;;;28.13;16.65;;;;;;;10.16;62.99;100202.31;4187096;28;20049;-59
2022/03/29 05:54:45;;;;;;;23.08;15.32;;;;;;;10.09;62.97;100193.56;4173655;28;20044;-59
2022/03/29 05:56:47;;;;;;;21.58;15.38;;;;;;;10.11;62.78;100197.94;4181652;28;20052;-59
2022/03/29 05:58:50;;;;;;;25.45;16.38;;;;;;;10.16;63.09;100189.31;4173466;28;20053;-59
2022/03/29 06:00:55;;;;;;;26.50;16.63;;;;;;;10.19;63.14;100192.84;4181453;28;20063;-59
2022/03/29 06:02:58;;;;;;;27.70;16.15;;;;;;;10.20;63.19;100197.16;4180388;28;20538;-58
2022/03/29 06:05:01;;;;;;;27.65;16.63;;;;;;;10.26;63.54;100196.38;4182365;28;20061;-59
2022/03/29 06:07:05;;;;;;;24.98;16.05;;;;;;;10.30;63.65;100192.97;4181401;28;20051;-60
2022/03/29 06:09:08;;;;;;;26.90;16.85;;;;;;;10.29;63.28;100186.00;4175681;28;20041;-58
2022/03/29 06:11:12;;;;;;;28.63;18.23;;;;;;;10.27;63.70;100187.72;4180176;28;20037;-59
2022/03/29 06:13:15;;;;;;;27.73;17.10;;;;;;;10.28;63.49;100194.69;4180987;28;20106;-58
2022/03/29 06:15:18;;;;;;;30.65;16.65;;;;;;;10.32;63.73;100191.22;4180240;28;20041;-59
2022/03/29 06:17:22;;;;;;;29.13;16.63;;;;;;;10.38;63.67;100193.97;4179566;28;20041;-59
2022/03/29 06:19:25;;;;;;;24.27;16.40;;;;;;;10.39;63.76;100197.41;4175694;28;20079;-59
2022/03/29 06:21:27;;;;;;;27.75;15.85;;;;;;;10.40;64.29;100196.56;4173979;28;20052;-59
2022/03/29 06:23:30;;;;;;;22.23;14.10;;;;;;;10.41;64.00;100196.59;4179566;28;20106;-59
2022/03/29 06:25:34;;;;;;;28.95;15.02;;;;;;;10.43;63.94;100199.19;4180069;28;20048;-58
2022/03/29 06:27:37;;;;;;;28.50;16.10;;;;;;;10.49;64.51;100204.44;4180942;28;20059;-59
2022/03/29 06:29:39;;;;;;;30.40;17.17;;;;;;;10.58;64.43;100208.88;4168615;28;20041;-59
2022/03/29 06:31:42;;;;;;;25.98;16.55;;;;;;;10.63;64.47;100199.38;4180759;28;20114;-59
2022/03/29 06:33:47;;;;;;;32.28;17.42;;;;;;;10.68;64.66;100205.50;4171521;28;20045;-59
2022/03/29 06:35:50;;;;;;;22.38;14.43;;;;;;;10.70;64.28;100198.56;4175942;28;20499;-59
2022/03/29 06:37:55;;;;;;;38.17;16.88;;;;;;;10.77;64.36;100199.53;4174924;28;20045;-59
2022/03/29 06:39:58;;;;;;;33.38;21.60;;;;;;;10.80;62.80;100205.59;4171685;28;20037;-59
2022/03/29 06:42:00;;;;;;;43.17;25.85;;;;;;;10.95;61.06;100204.91;4175543;28;20040;-59
2022/03/29 06:44:03;;;;;;;40.58;24.15;;;;;;;11.08;60.93;100200.66;4179222;28;20120;-59
2022/03/29 06:46:08;;;;;;;48.72;26.95;;;;;;;11.15;59.93;100201.56;4180394;28;20155;-59
2022/03/29 06:48:12;;;;;;;58.15;29.08;;;;;;;11.30;58.26;100204.28;4193753;28;20087;-59
2022/03/29 06:50:16;;;;;;;45.42;25.42;;;;;;;11.43;59.26;100202.63;4177051;28;20033;-59
2022/03/29 06:52:19;;;;;;;36.30;21.80;;;;;;;11.43;61.16;100209.56;4180231;28;20570;-59
2022/03/29 06:54:21;;;;;;;27.70;18.25;;;;;;;11.52;61.90;100207.00;4174568;28;20102;-59
2022/03/29 06:56:26;;;;;;;24.67;15.65;;;;;;;11.57;63.47;100202.72;4177922;28;20491;-59
2022/03/29 06:58:29;;;;;;;52.75;24.58;;;;;;;11.59;61.42;100216.59;4169039;28;20108;-59
2022/03/29 07:00:32;;;;;;;43.20;28.17;;;;;;;11.69;57.75;100217.53;4176370;28;20053;-59
2022/03/29 07:02:35;;;;;;;50.08;28.42;;;;;;;11.71;57.40;100208.03;4173840;28;20071;-59
2022/03/29 07:04:37;;;;;;;47.03;28.45;;;;;;;11.84;55.86;100215.03;4176990;28;20052;-59
2022/03/29 07:06:41;;;;;;;52.70;28.92;;;;;;;11.96;55.30;100209.03;4204031;28;20452;-59
2022/03/29 07:11:23;;;;;;;44.15;26.80;;;;;;;12.02;55.16;100203.00;4180298;28;20047;-59
2022/03/29 07:13:26;;;;;;;47.83;30.45;;;;;;;11.97;55.07;100202.09;4178484;28;20052;-59
2022/03/29 07:15:29;;;;;;;52.85;29.67;;;;;;;11.95;54.82;100209.03;4172703;28;20559;-59
2022/03/29 07:17:32;;;;;;;48.03;28.35;;;;;;;11.95;54.10;100198.63;4168726;28;20045;-59
2022/03/29 07:19:35;;;;;;;45.50;28.77;;;;;;;11.92;54.52;100203.78;4172999;28;20095;-59
2022/03/29 07:21:39;;;;;;;52.50;28.92;;;;;;;11.98;54.82;100206.44;4172123;28;20079;-59
2022/03/29 07:23:43;;;;;;;53.33;28.10;;;;;;;11.99;55.17;100202.97;4166014;28;20068;-59
2022/03/29 07:25:46;;;;;;;41.53;24.50;;;;;;;12.00;55.38;100207.31;4179231;28;20040;-60
2022/03/29 07:27:52;;;;;;;37.30;22.85;;;;;;;12.07;56.54;100213.44;4169101;28;20041;-59
2022/03/29 07:29:54;;;;;;;44.47;26.40;;;;;;;12.19;56.67;100210.84;4164295;28;20040;-59
2022/03/29 07:31:57;;;;;;;46.10;29.20;;;;;;;12.27;54.61;100203.94;4165047;28;20041;-60
2022/03/29 07:34:00;;;;;;;47.25;27.98;;;;;;;12.33;53.19;100203.94;4181876;28;20052;-59
2022/03/29 07:36:03;;;;;;;46.05;29.23;;;;;;;12.28;53.47;100202.19;4172156;28;20072;-59
2022/03/29 07:38:09;;;;;;;47.88;29.30;;;;;;;12.36;54.40;100198.75;4169740;28;20045;-59
2022/03/29 07:40:15;;;;;;;49.13;28.25;;;;;;;12.44;52.99;100201.38;4172001;28;20040;-59
2022/03/29 07:42:18;;;;;;;47.13;27.65;;;;;;;12.54;51.90;100197.03;4175693;28;20549;-59
2022/03/29 07:44:21;;;;;;;55.50;28.33;;;;;;;12.39;53.06;100193.53;4175919;28;20120;-58
2022/03/29 07:46:23;;;;;;;49.72;31.00;;;;;;;12.31;52.98;100199.59;4171179;28;20461;-59
2022/03/29 07:48:26;;;;;;;55.40;28.42;;;;;;;12.43;53.25;100199.63;4175789;28;20095;-59
2022/03/29 07:50:50;;;;;;;45.60;28.23;;;;;;;12.42;52.90;100195.28;4168074;28;20072;-59
2022/03/29 07:52:54;;;;;;;43.53;28.30;;;;;;;12.62;52.39;100197.09;4178146;28;20033;-59
2022/03/29 07:54:56;;;;;;;40.90;26.35;;;;;;;12.53;52.38;100190.97;4169451;28;20111;-59
2022/03/29 07:57:01;;;;;;;38.40;23.05;;;;;;;12.52;53.07;100188.38;4177072;28;20053;-59
2022/03/29 07:59:04;;;;;;;44.45;29.35;;;;;;;12.64;52.95;100182.28;4183857;28;20059;-59
2022/03/29 08:01:07;;;;;;;46.85;27.65;;;;;;;12.78;52.43;100183.19;4179055;28;20099;-59
2022/03/29 08:03:12;;;;;;;41.55;27.65;;;;;;;12.85;52.18;100177.09;4177929;28;20080;-59
2022/03/29 08:05:15;;;;;;;42.67;26.67;;;;;;;12.89;52.17;100176.22;4171358;28;20052;-58
2022/03/29 08:07:18;;;;;;;48.42;28.02;;;;;;;12.93;52.01;100177.94;4171420;28;20119;-59
2022/03/29 08:09:21;;;;;;;46.22;28.02;;;;;;;12.98;51.68;100182.31;4173419;28;20083;-59
2022/03/29 08:11:24;;;;;;;43.58;27.17;;;;;;;12.93;51.51;100171.88;4161597;28;20486;-59
2022/03/29 08:13:28;;;;;;;46.45;27.60;;;;;;;13.02;51.54;100179.69;4167216;28;20044;-59
2022/03/29 08:15:31;;;;;;;42.88;28.10;;;;;;;13.07;50.66;100175.34;4162017;28;20423;-59
2022/03/29 08:17:40;;;;;;;40.17;28.00;;;;;;;12.98;51.23;100180.59;4172739;28;20102;-59
2022/03/29 08:19:43;;;;;;;42.28;25.42;;;;;;;12.98;50.81;100183.19;4175033;28;20037;-59
2022/03/29 08:21:49;;;;;;;40.78;25.65;;;;;;;13.10;50.90;100179.72;4175761;28;20049;-59
2022/03/29 08:23:53;;;;;;;45.50;26.40;;;;;;;13.09;50.19;100185.78;4175613;28;20084;-59
2022/03/29 08:25:56;;;;;;;48.22;30.42;;;;;;;13.09;49.97;100181.44;4174094;28;20102;-59
2022/03/29 08:27:59;;;;;;;44.42;29.08;;;;;;;13.08;50.88;100177.09;4173048;28;20090;-59
2022/03/29 08:30:04;;;;;;;43.10;27.38;;;;;;;13.16;50.32;100176.22;4172445;28;20049;-59
2022/03/29 08:32:08;;;;;;;40.83;25.77;;;;;;;13.23;49.76;100180.56;4179007;28;20473;-59
2022/03/29 08:34:12;;;;;;;40.85;27.85;;;;;;;13.32;49.69;100170.09;4178134;28;20118;-59
2022/03/29 08:36:14;;;;;;;41.90;25.17;;;;;;;13.35;49.25;100174.50;4174567;28;20037;-59
2022/03/29 08:38:17;;;;;;;36.53;25.08;;;;;;;13.44;49.18;100174.47;4178629;28;20141;-59
2022/03/29 08:40:28;;;;;;;39.10;25.65;;;;;;;13.47;49.21;100173.59;4169938;28;20081;-59
2022/03/29 08:42:31;;;;;;;39.63;24.83;;;;;;;13.59;48.76;100178.78;4179427;28;20521;-59
2022/03/29 08:44:34;;;;;;;42.78;25.38;;;;;;;13.61;48.57;100180.50;4169680;28;20103;-58
2022/03/29 08:46:42;;;;;;;34.85;23.70;;;;;;;13.59;49.35;100182.28;4172903;28;20441;-59
2022/03/29 08:48:49;;;;;;;37.35;24.30;;;;;;;13.76;48.59;100179.59;4190141;28;20075;-59
2022/03/29 08:50:53;;;;;;;36.17;20.75;;;;;;;13.86;48.69;100184.81;4181461;28;20045;-59
2022/03/29 08:53:17;;;;;;;40.10;27.25;;;;;;;14.16;47.27;100172.47;4172662;28;20063;-59
2022/03/29 08:55:20;;;;;;;41.92;27.83;;;;;;;14.13;47.71;100163.78;4178145;28;20041;-59
2022/03/29 08:57:25;;;;;;;49.05;28.92;;;;;;;14.12;47.51;100167.25;4176364;28;20124;-59
2022/03/29 08:59:28;;;;;;;40.47;24.23;;;;;;;14.13;47.87;100157.66;4173328;28;20055;-59
2022/03/29 09:01:31;;;;;;;40.85;27.83;;;;;;;14.20;48.15;100158.50;4181732;28;20495;-58
2022/03/29 09:03:35;;;;;;;40.78;26.45;;;;;;;14.23;48.65;100161.94;4179894;28;20036;-59
2022/03/29 09:05:39;;;;;;;38.53;27.45;;;;;;;14.26;48.26;100161.06;4180457;28;20066;-59
2022/03/29 09:07:52;;;;;;;42.15;25.30;;;;;;;14.42;48.40;100154.00;4178005;28;20483;-59
2022/03/29 09:10:03;;;;;;;47.50;27.95;;;;;;;14.70;46.79;100153.84;4169113;28;20134;-59
2022/03/29 09:12:14;;;;;;;47.45;27.95;;;;;;;14.73;46.96;100148.56;4178333;28;20477;-59
2022/03/29 09:14:17;;;;;;;44.05;25.45;;;;;;;14.67;47.81;100152.09;4173682;28;20057;-59
2022/03/29 09:16:29;;;;;;;37.58;22.40;;;;;;;14.79;47.16;100159.00;4173898;28;21019;-59
2022/03/29 09:18:32;;;;;;;38.55;23.52;;;;;;;14.86;48.14;100158.06;4173471;28;20045;-59
2022/03/29 09:20:36;;;;;;;42.38;25.83;;;;;;;14.92;47.91;100160.66;4178659;28;20435;-59
2022/03/29 09:22:45;;;;;;;44.60;25.88;;;;;;;15.03;47.89;100157.06;4204602;28;20047;-59
2022/03/29 09:24:55;;;;;;;39.20;28.33;;;;;;;15.10;47.34;100161.34;4180096;28;20052;-59
2022/03/29 09:26:58;;;;;;;41.45;26.20;;;;;;;15.14;47.27;100165.66;4181544;28;20044;-59
2022/03/29 09:29:01;;;;;;;37.75;23.83;;;;;;;15.21;47.38;100158.63;4180198;28;20049;-59
2022/03/29 09:31:18;;;;;;;43.88;29.70;;;;;;;15.19;46.77;100159.50;4178602;28;20412;-59
2022/03/29 09:33:28;;;;;;;41.97;27.13;;;;;;;15.24;47.29;100154.22;4181316;28;20049;-59